createdAt,value
2022-11-16T00:00:16.803Z,101187.84
2022-11-16T00:02:43.756Z,101198.16
2022-11-16T00:05:10.759Z,101155.44
2022-11-16T00:07:37.752Z,101189.50
2022-11-16T00:10:05.198Z,101190.25
2022-11-16T00:12:32.058Z,101186.31
2022-11-16T00:14:58.953Z,101159.13
2022-11-16T00:17:25.860Z,101191.50
2022-11-16T00:19:52.780Z,101172.75
2022-11-16T00:22:19.680Z,101150.19
2022-11-16T00:24:46.759Z,101186.03
2022-11-16T00:27:13.636Z,101163.59
2022-11-16T00:29:40.514Z,101176.28
2022-11-16T00:32:07.678Z,101144.53
2022-11-16T00:34:34.594Z,101138.13
2022-11-16T00:37:01.544Z,101171.06
2022-11-16T00:39:28.436Z,101181.59
2022-11-16T00:41:55.314Z,101172.88
2022-11-16T00:44:22.237Z,101190.25
2022-11-16T00:46:49.156Z,101191.91
2022-11-16T00:49:16.315Z,101189.31
2022-11-16T00:51:43.311Z,101169.44
2022-11-16T00:54:10.239Z,101186.59
2022-11-16T00:56:37.395Z,101181.81
2022-11-16T00:59:04.417Z,101188.38
2022-11-16T01:01:31.291Z,101177.88
2022-11-16T01:03:58.298Z,101182.78
2022-11-16T01:06:25.540Z,101160.72
2022-11-16T01:08:52.471Z,101150.75
2022-11-16T01:11:37.635Z,101189.88
2022-11-16T01:14:05.724Z,101153.03
2022-11-16T01:16:32.779Z,101186.91
2022-11-16T01:18:59.835Z,101195.34
2022-11-16T01:21:26.856Z,101174.44
2022-11-16T01:23:54.752Z,101192.75
2022-11-16T01:26:21.682Z,101211.88
2022-11-16T01:28:48.669Z,101173.41
2022-11-16T01:31:15.601Z,101180.66
2022-11-16T01:33:42.479Z,101155.50
2022-11-16T01:36:14.845Z,101190.31
2022-11-16T01:38:45.916Z,101184.75
2022-11-16T01:41:17.275Z,101186.44
2022-11-16T01:44:01.822Z,101178.59
2022-11-16T01:46:28.975Z,101166.84
2022-11-16T01:49:10.195Z,101148.22
2022-11-16T01:51:37.158Z,101162.47
2022-11-16T01:54:06.799Z,101155.00
2022-11-16T01:56:34.711Z,101155.00
2022-11-16T01:59:01.656Z,101167.56
2022-11-16T02:01:28.666Z,101163.41
2022-11-16T02:03:55.756Z,101166.97
2022-11-16T02:06:47.508Z,101174.88
2022-11-16T02:09:45.046Z,101172.63
2022-11-16T02:12:14.827Z,101167.63
2022-11-16T02:14:53.727Z,101167.97
2022-11-16T02:17:24.887Z,101142.84
2022-11-16T02:20:16.893Z,101173.13
2022-11-16T02:23:01.865Z,101171.75
2022-11-16T02:25:35.769Z,101152.25
2022-11-16T02:28:15.434Z,101156.84
2022-11-16T02:30:44.645Z,101154.34
2022-11-16T02:33:13.207Z,101123.38
2022-11-16T02:35:47.888Z,101165.06
2022-11-16T02:38:19.566Z,101157.94
2022-11-16T02:40:48.573Z,101160.00
2022-11-16T02:43:39.869Z,101163.94
2022-11-16T02:46:09.447Z,101168.13
2022-11-16T02:48:38.646Z,101165.94
2022-11-16T02:51:06.587Z,101151.53
2022-11-16T02:53:37.905Z,101158.00
2022-11-16T02:56:04.846Z,101154.22
2022-11-16T02:58:32.027Z,101139.75
2022-11-16T03:01:28.138Z,101145.44
2022-11-16T03:04:03.625Z,101148.06
2022-11-16T03:06:31.826Z,101146.91
2022-11-16T03:09:06.649Z,101143.56
2022-11-16T03:11:52.727Z,101147.00
2022-11-16T03:14:23.006Z,101127.06
2022-11-16T03:16:52.988Z,101132.69
2022-11-16T03:19:27.166Z,101143.41
2022-11-16T03:21:59.818Z,101138.31
2022-11-16T03:24:26.608Z,101123.44
2022-11-16T03:27:05.490Z,101139.97
2022-11-16T03:29:55.448Z,101137.38
2022-11-16T03:33:04.231Z,101138.19
2022-11-16T03:35:34.928Z,101134.06
2022-11-16T03:38:01.891Z,101134.88
2022-11-16T03:40:30.447Z,101125.91
2022-11-16T03:42:57.246Z,101138.50
2022-11-16T03:45:24.179Z,101148.94
2022-11-16T03:47:51.953Z,101136.13
2022-11-16T03:50:18.747Z,101117.31
2022-11-16T03:52:45.609Z,101133.50
2022-11-16T03:55:12.384Z,101113.69
2022-11-16T03:57:39.173Z,101126.25
2022-11-16T04:00:07.145Z,101097.78
2022-11-16T04:02:33.944Z,101128.75
2022-11-16T04:05:18.967Z,101134.25
2022-11-16T04:08:06.162Z,101134.06
2022-11-16T04:10:51.426Z,101127.81
2022-11-16T04:13:38.166Z,101126.75
2022-11-16T04:16:23.867Z,101152.16
2022-11-16T04:19:08.968Z,101147.78
2022-11-16T04:22:10.344Z,101139.78
2022-11-16T04:24:38.648Z,101152.03
2022-11-16T04:27:26.546Z,101155.38
2022-11-16T04:29:53.928Z,101149.69
2022-11-16T04:32:39.225Z,101142.78
2022-11-16T04:35:24.466Z,101152.91
2022-11-16T04:37:54.845Z,101145.19
2022-11-16T04:40:28.006Z,101139.56
2022-11-16T04:42:56.107Z,101143.84
2022-11-16T04:45:41.250Z,101140.19
2022-11-16T04:48:08.327Z,101113.59
2022-11-16T04:50:35.385Z,101125.31
2022-11-16T04:53:02.768Z,101141.25
2022-11-16T04:55:29.527Z,101110.25
2022-11-16T04:57:56.286Z,101136.03
2022-11-16T05:00:23.271Z,101124.38
2022-11-16T05:02:50.088Z,101110.50
2022-11-16T05:05:17.029Z,101132.69
2022-11-16T05:07:43.947Z,101116.78
2022-11-16T05:10:11.108Z,101115.09
2022-11-16T05:12:38.026Z,101124.69
2022-11-16T05:15:05.677Z,101100.59
2022-11-16T05:17:32.692Z,101117.06
2022-11-16T05:20:17.986Z,101121.09
2022-11-16T05:22:44.786Z,101124.53
2022-11-16T05:25:12.210Z,101116.34
2022-11-16T05:27:39.087Z,101129.25
2022-11-16T05:30:06.558Z,101136.22
2022-11-16T05:32:33.367Z,101144.66
2022-11-16T05:35:00.131Z,101143.09
2022-11-16T05:37:27.023Z,101126.38
2022-11-16T05:39:55.002Z,101127.41
2022-11-16T05:42:21.888Z,101138.66
2022-11-16T05:44:48.860Z,101138.44
2022-11-16T05:47:15.777Z,101115.59
2022-11-16T05:49:42.586Z,101131.59
2022-11-16T05:52:09.466Z,101149.06
2022-11-16T05:54:36.296Z,101139.19
2022-11-16T05:57:03.104Z,101139.91
2022-11-16T05:59:30.228Z,101158.66
2022-11-16T06:01:57.962Z,101138.47
2022-11-16T06:04:25.068Z,101114.56
2022-11-16T06:06:52.278Z,101160.72
2022-11-16T06:09:19.177Z,101148.88
2022-11-16T06:11:45.970Z,101149.22
2022-11-16T06:14:12.871Z,101153.38
2022-11-16T06:16:39.692Z,101164.41
2022-11-16T06:19:06.507Z,101158.88
2022-11-16T06:21:33.416Z,101170.97
2022-11-16T06:24:00.402Z,101173.38
2022-11-16T06:26:27.169Z,101154.44
2022-11-16T06:28:55.020Z,101172.84
2022-11-16T06:31:22.169Z,101163.19
2022-11-16T06:33:49.029Z,101169.81
2022-11-16T06:36:15.848Z,101178.25
2022-11-16T06:38:42.589Z,101177.22
2022-11-16T06:41:09.386Z,101180.78
2022-11-16T06:43:36.282Z,101170.03
2022-11-16T06:46:03.193Z,101149.13
2022-11-16T06:48:30.741Z,101170.78
2022-11-16T06:50:57.756Z,101173.06
2022-11-16T06:53:28.953Z,101174.81
2022-11-16T06:55:56.231Z,101175.44
2022-11-16T06:58:23.053Z,101175.56
2022-11-16T07:00:49.926Z,101179.94
2022-11-16T07:03:16.747Z,101168.06
2022-11-16T07:05:43.547Z,101176.19
2022-11-16T07:08:10.415Z,101176.41
2022-11-16T07:10:38.390Z,101178.03
2022-11-16T07:13:05.328Z,101186.69
2022-11-16T07:15:32.811Z,101185.75
2022-11-16T07:18:06.368Z,101180.56
2022-11-16T07:20:33.930Z,101159.88
2022-11-16T07:23:02.027Z,101170.56
2022-11-16T07:25:28.930Z,101179.81
2022-11-16T07:27:55.787Z,101184.81
2022-11-16T07:30:22.656Z,101178.78
2022-11-16T07:32:49.490Z,101176.28
2022-11-16T07:35:16.389Z,101182.91
2022-11-16T07:37:43.452Z,101188.88
2022-11-16T07:40:10.667Z,101178.56
2022-11-16T07:42:37.409Z,101180.03
2022-11-16T07:45:04.535Z,101185.84
2022-11-16T07:47:36.069Z,101128.66
2022-11-16T07:50:02.987Z,101178.66
2022-11-16T07:52:29.795Z,101173.31
2022-11-16T07:54:56.854Z,101184.06
2022-11-16T07:57:24.109Z,101178.53
2022-11-16T07:59:50.948Z,101161.81
2022-11-16T08:02:17.787Z,101154.13
2022-11-16T08:04:44.582Z,101168.16
2022-11-16T08:07:11.679Z,101183.84
2022-11-16T08:09:39.581Z,101169.91
2022-11-16T08:12:06.825Z,101177.63
2022-11-16T08:14:33.629Z,101196.97
2022-11-16T08:17:00.507Z,101182.00
2022-11-16T08:19:27.352Z,101201.97
2022-11-16T08:21:54.223Z,101198.66
2022-11-16T08:24:21.150Z,101197.09
2022-11-16T08:26:48.026Z,101224.03
2022-11-16T08:29:15.334Z,101223.94
2022-11-16T08:31:44.008Z,101206.53
2022-11-16T08:34:10.952Z,101215.28
2022-11-16T08:36:37.827Z,101226.59
2022-11-16T08:39:04.666Z,101212.63
2022-11-16T08:41:31.511Z,101213.59
2022-11-16T08:44:00.256Z,101217.63
2022-11-16T08:46:27.176Z,101199.22
2022-11-16T08:48:57.368Z,101215.25
2022-11-16T08:51:24.467Z,101221.28
2022-11-16T08:53:58.374Z,101215.97
2022-11-16T08:56:27.390Z,101207.63
2022-11-16T08:58:58.625Z,101197.69
2022-11-16T09:01:27.714Z,101202.66
2022-11-16T09:03:54.712Z,101212.16
2022-11-16T09:06:22.087Z,101214.06
2022-11-16T09:08:49.065Z,101216.59
2022-11-16T09:11:17.947Z,101215.56
2022-11-16T09:13:45.370Z,101220.16
2022-11-16T09:16:12.290Z,101212.09
2022-11-16T09:18:39.170Z,101167.56
2022-11-16T09:21:06.211Z,101208.00
2022-11-16T09:23:33.110Z,101177.34
2022-11-16T09:26:04.490Z,101204.16
2022-11-16T09:28:31.832Z,101217.69
2022-11-16T09:31:04.130Z,101213.31
2022-11-16T09:33:31.598Z,101199.69
2022-11-16T09:36:09.210Z,101175.75
2022-11-16T09:41:54.189Z,101205.31
2022-11-16T09:44:39.202Z,101204.38
2022-11-16T09:47:10.027Z,101161.44
2022-11-16T09:49:39.733Z,101199.47
2022-11-16T09:52:14.668Z,101198.38
2022-11-16T09:54:41.568Z,101154.22
2022-11-16T09:57:12.690Z,101199.47
2022-11-16T09:59:48.186Z,101160.97
2022-11-16T10:02:14.907Z,101191.28
2022-11-16T10:05:00.010Z,101192.72
2022-11-16T10:07:31.926Z,101171.63
2022-11-16T10:09:58.834Z,101182.75
2022-11-16T10:12:43.793Z,101188.69
2022-11-16T10:15:23.610Z,101201.50
2022-11-16T10:18:27.946Z,101201.84
2022-11-16T10:21:22.927Z,101192.81
2022-11-16T10:24:08.408Z,101201.34
2022-11-16T10:26:59.607Z,101186.38
2022-11-16T10:29:57.312Z,101193.63
2022-11-16T10:32:46.847Z,101194.25
2022-11-16T10:35:20.077Z,101176.66
2022-11-16T10:37:50.772Z,101183.59
2022-11-16T10:40:36.607Z,101178.09
2022-11-16T10:43:18.010Z,101183.69
2022-11-16T10:45:52.346Z,101184.53
2022-11-16T10:48:37.262Z,101190.56
2022-11-16T10:51:08.268Z,101189.84
2022-11-16T10:53:36.852Z,101190.31
2022-11-16T10:56:39.789Z,101183.22
2022-11-16T10:59:07.828Z,101171.34
2022-11-16T11:01:44.449Z,101178.59
2022-11-16T11:04:20.470Z,101180.59
2022-11-16T11:06:55.103Z,101176.66
2022-11-16T11:09:24.985Z,101177.22
2022-11-16T11:12:32.369Z,101175.06
2022-11-16T11:15:11.257Z,101181.22
2022-11-16T11:17:39.666Z,101173.63
2022-11-16T11:20:32.849Z,101179.09
2022-11-16T11:23:00.868Z,101185.78
2022-11-16T11:25:35.851Z,101183.88
2022-11-16T11:28:25.195Z,101185.78
2022-11-16T11:31:22.708Z,101175.44
2022-11-16T11:33:53.909Z,101177.22
2022-11-16T11:36:42.508Z,101150.63
2022-11-16T11:39:12.129Z,101184.47
2022-11-16T11:41:43.494Z,101190.53
2022-11-16T11:44:13.207Z,101189.59
2022-11-16T11:47:35.224Z,101188.03
2022-11-16T11:49:35.750Z,101151.75
2022-11-16T11:52:12.488Z,101192.41
2022-11-16T11:54:45.867Z,101179.22
2022-11-16T11:57:15.809Z,101181.00
2022-11-16T11:59:42.611Z,101147.72
2022-11-16T12:02:46.663Z,101196.84
2022-11-16T12:05:29.545Z,101194.81
2022-11-16T12:08:20.983Z,101183.84
2022-11-16T12:11:25.326Z,101195.19
2022-11-16T12:14:16.930Z,101201.44
2022-11-16T12:17:07.510Z,101184.59
2022-11-16T12:19:49.826Z,101185.44
2022-11-16T12:22:38.387Z,101182.94
2022-11-16T12:25:26.492Z,101188.78
2022-11-16T12:28:05.254Z,101188.72
2022-11-16T12:30:34.011Z,101177.38
2022-11-16T12:33:32.051Z,101183.19
2022-11-16T12:36:02.921Z,101174.88
2022-11-16T12:38:33.029Z,101170.22
2022-11-16T12:41:25.812Z,101177.38
2022-11-16T12:44:10.247Z,101179.34
2022-11-16T12:46:49.144Z,101179.47
2022-11-16T12:49:53.188Z,101191.66
2022-11-16T12:52:44.246Z,101186.53
2022-11-16T12:55:33.426Z,101176.69
2022-11-16T12:58:31.287Z,101184.81
2022-11-16T13:01:35.427Z,101185.03
2022-11-16T13:04:32.229Z,101175.69
2022-11-16T13:07:11.258Z,101195.56
2022-11-16T13:09:43.646Z,101189.13
2022-11-16T13:12:17.251Z,101183.09
2022-11-16T13:14:48.250Z,101139.81
2022-11-16T13:17:23.087Z,101165.00
2022-11-16T13:20:17.172Z,101186.28
2022-11-16T13:22:53.468Z,101177.88
2022-11-16T13:25:43.368Z,101177.16
2022-11-16T13:28:33.674Z,101150.31
2022-11-16T13:31:17.348Z,101143.34
2022-11-16T13:33:51.301Z,101178.41
2022-11-16T13:36:37.253Z,101179.34
2022-11-16T13:39:05.326Z,101175.38
2022-11-16T13:41:34.787Z,101178.09
2022-11-16T13:44:02.782Z,101178.91
2022-11-16T13:46:55.852Z,101191.81
2022-11-16T13:49:50.109Z,101188.03
2022-11-16T13:52:23.688Z,101193.25
2022-11-16T13:54:53.450Z,101179.72
2022-11-16T13:57:25.635Z,101153.69
2022-11-16T14:00:05.319Z,101194.34
2022-11-16T14:02:36.810Z,101179.47
2022-11-16T14:05:16.246Z,101190.81
2022-11-16T14:07:46.432Z,101195.44
2022-11-16T14:10:45.305Z,101188.91
2022-11-16T14:13:30.629Z,101199.38
2022-11-16T14:16:21.996Z,101198.75
2022-11-16T14:19:01.948Z,101180.22
2022-11-16T14:22:06.246Z,101184.59
2022-11-16T14:24:42.445Z,101166.28
2022-11-16T14:27:30.606Z,101179.34
2022-11-16T14:30:03.809Z,101179.91
2022-11-16T14:32:41.298Z,101164.19
2022-11-16T14:35:34.155Z,101180.19
2022-11-16T14:38:29.490Z,101176.94
2022-11-16T14:40:59.398Z,101174.56
2022-11-16T14:43:30.336Z,101155.50
2022-11-16T14:46:33.474Z,101142.75
2022-11-16T14:49:00.727Z,101185.53
2022-11-16T14:51:34.506Z,101183.22
2022-11-16T14:54:05.745Z,101170.06
2022-11-16T14:56:32.504Z,101172.66
2022-11-16T14:59:01.076Z,101185.47
2022-11-16T15:01:28.548Z,101175.75
2022-11-16T15:04:02.632Z,101185.00
2022-11-16T15:06:30.482Z,101159.19
2022-11-16T15:09:02.409Z,101161.03
2022-11-16T15:11:50.287Z,101156.78
2022-11-16T15:14:21.567Z,101177.06
2022-11-16T15:16:50.633Z,101176.13
2022-11-16T15:19:17.464Z,101161.22
2022-11-16T15:21:58.486Z,101166.41
2022-11-16T15:24:31.884Z,101178.00
2022-11-16T15:27:16.427Z,101179.66
2022-11-16T15:29:43.305Z,101147.91
2022-11-16T15:32:14.718Z,101185.78
2022-11-16T15:34:41.587Z,101159.09
2022-11-16T15:37:12.168Z,101166.22
2022-11-16T15:39:38.969Z,101178.94
2022-11-16T15:42:06.148Z,101179.84
2022-11-16T15:44:33.043Z,101178.38
2022-11-16T15:46:59.806Z,101178.66
2022-11-16T15:49:30.466Z,101182.91
2022-11-16T15:51:58.540Z,101133.66
2022-11-16T15:54:25.452Z,101177.06
2022-11-16T15:56:53.464Z,101183.50
2022-11-16T15:59:31.943Z,101174.84
2022-11-16T16:01:58.855Z,101170.06
2022-11-16T16:04:25.729Z,101178.31
2022-11-16T16:06:59.765Z,101170.06
2022-11-16T16:09:34.729Z,101148.56
2022-11-16T16:12:21.225Z,101182.09
2022-11-16T16:14:49.337Z,101171.63
2022-11-16T16:17:29.492Z,101169.66
2022-11-16T16:20:03.840Z,101176.56
2022-11-16T16:22:35.532Z,101175.63
2022-11-16T16:25:04.170Z,101185.06
2022-11-16T16:27:31.551Z,101180.03
2022-11-16T16:29:59.235Z,101187.75
2022-11-16T16:32:30.068Z,101173.75
2022-11-16T16:34:58.531Z,101185.34
2022-11-16T16:37:32.190Z,101176.72
2022-11-16T16:39:59.213Z,101179.41
2022-11-16T16:42:26.186Z,101182.94
2022-11-16T16:44:53.027Z,101188.22
2022-11-16T16:47:22.667Z,101190.16
2022-11-16T16:49:49.691Z,101182.56
2022-11-16T16:52:16.715Z,101183.47
2022-11-16T16:54:43.553Z,101190.25
2022-11-16T16:57:17.078Z,101173.56
2022-11-16T16:59:45.572Z,101193.84
2022-11-16T17:02:12.857Z,101191.16
2022-11-16T17:04:39.809Z,101188.84
2022-11-16T17:07:06.697Z,101188.59
2022-11-16T17:09:33.606Z,101197.38
2022-11-16T17:12:00.426Z,101198.13
2022-11-16T17:14:27.195Z,101199.03
2022-11-16T17:16:54.027Z,101187.94
2022-11-16T17:22:01.513Z,101191.25
2022-11-16T17:24:28.311Z,101199.97
2022-11-16T17:26:55.110Z,101184.94
2022-11-16T17:29:21.866Z,101188.56
2022-11-16T17:31:48.989Z,101198.38
2022-11-16T17:34:15.870Z,101195.25
2022-11-16T17:36:43.414Z,101197.72
2022-11-16T17:39:10.171Z,101178.19
2022-11-16T17:41:37.226Z,101194.69
2022-11-16T17:44:04.587Z,101196.34
2022-11-16T17:46:31.411Z,101200.78
2022-11-16T17:48:58.187Z,101193.28
2022-11-16T17:51:25.528Z,101162.81
2022-11-16T17:53:52.633Z,101202.66
2022-11-16T17:56:26.034Z,101188.16
2022-11-16T17:58:55.057Z,101203.84
2022-11-16T18:01:22.485Z,101209.69
2022-11-16T18:03:49.348Z,101192.63
2022-11-16T18:06:20.713Z,101208.66
2022-11-16T18:08:47.894Z,101215.88
2022-11-16T18:11:18.909Z,101196.81
2022-11-16T18:13:45.850Z,101182.44
2022-11-16T18:16:20.353Z,101193.63
2022-11-16T18:18:47.697Z,101207.25
2022-11-16T18:21:20.388Z,101214.75
2022-11-16T18:23:47.797Z,101194.00
2022-11-16T18:26:15.993Z,101229.22
2022-11-16T18:28:45.010Z,101228.34
2022-11-16T18:31:13.286Z,101208.53
2022-11-16T18:33:40.202Z,101214.09
2022-11-16T18:36:07.425Z,101228.63
2022-11-16T18:38:34.449Z,101220.97
2022-11-16T18:41:07.375Z,101217.53
2022-11-16T18:43:34.912Z,101209.47
2022-11-16T18:46:02.086Z,101231.56
2022-11-16T18:48:28.929Z,101220.56
2022-11-16T18:51:02.410Z,101205.72
2022-11-16T18:53:29.930Z,101213.34
2022-11-16T18:55:58.229Z,101218.59
2022-11-16T18:58:55.256Z,101222.66
2022-11-16T19:01:14.703Z,101227.69
2022-11-16T19:03:41.710Z,101220.19
2022-11-16T19:06:08.926Z,101222.66
2022-11-16T19:08:36.681Z,101216.75
2022-11-16T19:11:07.387Z,101214.16
2022-11-16T19:13:34.623Z,101221.66
2022-11-16T19:16:01.928Z,101214.16
2022-11-16T19:18:28.767Z,101214.16
2022-11-16T19:21:09.427Z,101207.41
2022-11-16T19:23:46.794Z,101207.41
2022-11-16T19:26:14.952Z,101196.53
2022-11-16T19:28:43.745Z,101190.16
2022-11-16T19:31:17.927Z,101229.59
2022-11-16T19:33:45.104Z,101225.25
2022-11-16T19:36:13.749Z,101214.22
2022-11-16T19:38:40.674Z,101214.06
2022-11-16T19:41:07.865Z,101198.97
2022-11-16T19:43:35.166Z,101207.13
2022-11-16T19:46:12.872Z,101204.97
2022-11-16T19:48:39.771Z,101207.97
2022-11-16T19:51:11.469Z,101205.63
2022-11-16T19:53:38.724Z,101215.47
2022-11-16T19:56:06.472Z,101212.88
2022-11-16T19:58:38.390Z,101209.47
2022-11-16T20:01:06.973Z,101200.44
2022-11-16T20:03:34.677Z,101211.28
2022-11-16T20:06:21.791Z,101213.72
2022-11-16T20:08:53.152Z,101219.72
2022-11-16T20:11:21.345Z,101215.66
2022-11-16T20:13:48.829Z,101213.22
2022-11-16T20:16:16.223Z,101225.00
2022-11-16T20:18:43.564Z,101195.34
2022-11-16T20:21:21.348Z,101221.59
2022-11-16T20:23:48.163Z,101221.75
2022-11-16T20:26:15.086Z,101232.03
2022-11-16T20:28:42.694Z,101215.34
2022-11-16T20:31:28.688Z,101233.03
2022-11-16T20:33:56.186Z,101229.72
2022-11-16T20:36:24.007Z,101213.84
2022-11-16T20:38:51.031Z,101217.94
2022-11-16T20:41:18.526Z,101226.53
2022-11-16T20:43:45.651Z,101217.28
2022-11-16T20:46:13.844Z,101220.91
2022-11-16T20:48:41.148Z,101228.22
2022-11-16T20:51:08.625Z,101198.28
2022-11-16T20:53:35.865Z,101185.59
2022-11-16T20:56:03.769Z,101188.84
2022-11-16T20:58:31.187Z,101222.22
2022-11-16T21:01:18.004Z,101211.09
2022-11-16T21:03:44.932Z,101220.53
2022-11-16T21:06:12.925Z,101201.91
2022-11-16T21:08:39.849Z,101213.84
2022-11-16T21:11:16.287Z,101215.50
2022-11-16T21:14:03.175Z,101227.47
2022-11-16T21:16:30.066Z,101217.19
2022-11-16T21:18:56.885Z,101210.53
2022-11-16T21:21:24.502Z,101224.81
2022-11-16T21:23:55.121Z,101214.78
2022-11-16T21:26:26.522Z,101231.72
2022-11-16T21:28:53.601Z,101221.56
2022-11-16T21:31:21.915Z,101225.88
2022-11-16T21:33:48.805Z,101210.78
2022-11-16T21:36:17.107Z,101218.88
2022-11-16T21:38:43.967Z,101215.50
2022-11-16T21:41:11.425Z,101218.19
2022-11-16T21:43:40.342Z,101217.38
2022-11-16T21:46:11.548Z,101211.72
2022-11-16T21:48:38.403Z,101213.19
2022-11-16T21:51:06.728Z,101214.19
2022-11-16T21:53:33.878Z,101209.38
2022-11-16T21:56:01.006Z,101214.47
2022-11-16T21:58:28.056Z,101212.81
2022-11-16T22:00:56.483Z,101205.22
2022-11-16T22:03:24.346Z,101233.25
2022-11-16T22:06:20.270Z,101231.59
2022-11-16T22:08:47.450Z,101232.53
2022-11-16T22:14:17.167Z,101229.19
2022-11-16T22:16:44.171Z,101219.09
2022-11-16T22:19:11.063Z,101232.53
2022-11-16T22:21:38.475Z,101225.00
2022-11-16T22:24:05.633Z,101236.94
2022-11-16T22:26:32.593Z,101236.94
2022-11-16T22:28:59.576Z,101240.47
2022-11-16T22:31:26.557Z,101232.03
2022-11-16T22:33:55.952Z,101245.72
2022-11-16T22:36:22.876Z,101237.13
2022-11-16T22:38:49.760Z,101220.34
2022-11-16T22:41:16.635Z,101243.97
2022-11-16T22:43:43.496Z,101232.94
2022-11-16T22:46:11.015Z,101239.88
2022-11-16T22:48:39.617Z,101224.69
2022-11-16T22:51:19.421Z,101219.59
2022-11-16T22:53:46.435Z,101231.44
2022-11-16T22:56:13.318Z,101230.72
2022-11-16T22:58:40.445Z,101215.59
2022-11-16T23:01:07.933Z,101209.50
2022-11-16T23:03:35.488Z,101230.53
2022-11-16T23:06:02.937Z,101223.94
2022-11-16T23:08:29.838Z,101190.47
2022-11-16T23:11:22.316Z,101221.03
2022-11-16T23:14:08.155Z,101221.84
2022-11-16T23:16:35.136Z,101231.38
2022-11-16T23:19:02.035Z,101193.66
2022-11-16T23:21:47.358Z,101220.16
2022-11-16T23:24:33.455Z,101222.09
2022-11-16T23:27:20.575Z,101215.91
2022-11-16T23:29:47.475Z,101196.56
2022-11-16T23:32:14.342Z,101221.75
2022-11-16T23:34:41.197Z,101197.41
2022-11-16T23:37:08.211Z,101195.72
2022-11-16T23:39:35.053Z,101209.91
2022-11-16T23:42:20.254Z,101223.50
2022-11-16T23:44:47.119Z,101203.22
2022-11-16T23:47:13.980Z,101204.06
2022-11-16T23:49:40.896Z,101204.81
2022-11-16T23:52:07.821Z,101208.06
2022-11-16T23:54:34.694Z,101209.91
2022-11-16T23:57:01.617Z,101193.97
2022-11-16T23:59:28.454Z,101208.41
